Wetterdaten: Woche 26.04.21 - 02.05.21 (KW17)
Datum Zeit Temp. Aussen Temp. o. S. Temp +5cm Feuchte Auss Luftdruck Regen Sonnenschein Regendauer Solar Windben Empfang
26.04.2021 00:00 5,3 C 3,8 C 1,9 C 78 % 1024,2 hPa 0,0 l/m 0,00 h 0,00 h 0 W/m 0,3 km/h (0 Bft) 97,65 %
26.04.2021 01:00 4,3 C 3,0 C 1,3 C 81 % 1024,1 hPa 0,0 l/m 0,00 h 0,00 h 0 W/m 0,4 km/h (0 Bft) 98,08 %
26.04.2021 02:00 3,5 C 2,1 C 0,4 C 84 % 1023,8 hPa 0,0 l/m 0,00 h 0,00 h 0 W/m 0,0 km/h (0 Bft) 96,44 %
26.04.2021 03:00 2,6 C 1,7 C -0,0 C 86 % 1023,3 hPa 0,0 l/m 0,00 h 0,00 h 0 W/m 1,1 km/h (0 Bft) 95,84 %
26.04.2021 04:00 2,6 C 2,1 C 0,3 C 87 % 1023,0 hPa 0,0 l/m 0,00 h 0,00 h 0 W/m 3,0 km/h (1 Bft) 94,31 %
26.04.2021 05:00 2,3 C 1,3 C -0,4 C 87 % 1022,5 hPa 0,0 l/m 0,00 h 0,00 h 0 W/m 1,3 km/h (1 Bft) 95,94 %
26.04.2021 06:00 1,8 C 1,2 C -0,5 C 87 % 1022,3 hPa 0,0 l/m 0,00 h 0,00 h 11 W/m 1,5 km/h (1 Bft) 97,43 %
26.04.2021 07:00 2,2 C 2,3 C 0,2 C 88 % 1022,3 hPa 0,0 l/m 0,00 h 0,00 h 26 W/m 4,4 km/h (1 Bft) 97,73 %
26.04.2021 08:00 4,3 C 6,0 C 2,3 C 85 % 1022,2 hPa 0,0 l/m 0,33 h 0,00 h 151 W/m 5,1 km/h (1 Bft) 97,70 %
26.04.2021 09:00 9,4 C 16,8 C 10,3 C 66 % 1022,0 hPa 0,0 l/m 0,90 h 0,00 h 426 W/m 7,2 km/h (2 Bft) 98,72 %
26.04.2021 10:00 11,6 C 15,9 C 13,0 C 53 % 1021,7 hPa 0,0 l/m 0,80 h 0,00 h 543 W/m 9,3 km/h (2 Bft) 97,10 %
26.04.2021 11:00 12,6 C 15,3 C 12,3 C 48 % 1021,3 hPa 0,0 l/m 1,00 h 0,00 h 778 W/m 12,5 km/h (3 Bft) 97,86 %
26.04.2021 12:00 14,0 C 18,3 C 20,3 C 45 % 1020,6 hPa 0,0 l/m 1,00 h 0,00 h 860 W/m 13,9 km/h (3 Bft) 99,78 %
26.04.2021 13:00 15,0 C 19,9 C 19,6 C 43 % 1019,7 hPa 0,0 l/m 1,00 h 0,00 h 888 W/m 11,7 km/h (2 Bft) 96,87 %
26.04.2021 14:00 15,7 C 20,7 C 12,8 C 41 % 1018,9 hPa 0,0 l/m 1,00 h 0,00 h 863 W/m 14,1 km/h (3 Bft) 95,87 %
26.04.2021 15:00 16,1 C 21,9 C 12,9 C 40 % 1018,1 hPa 0,0 l/m 1,00 h 0,00 h 788 W/m 14,2 km/h (3 Bft) 96,65 %
26.04.2021 16:00 16,7 C 24,0 C 14,3 C 40 % 1017,0 hPa 0,0 l/m 1,00 h 0,00 h 666 W/m 15,2 km/h (3 Bft) 97,29 %
26.04.2021 17:00 16,9 C 24,1 C 14,9 C 40 % 1016,3 hPa 0,0 l/m 1,00 h 0,00 h 502 W/m 12,9 km/h (3 Bft) 98,36 %
26.04.2021 18:00 15,9 C 20,7 C 13,6 C 41 % 1015,5 hPa 0,0 l/m 1,00 h 0,00 h 321 W/m 13,0 km/h (3 Bft) 98,11 %
26.04.2021 19:00 13,7 C 13,3 C 10,5 C 45 % 1015,0 hPa 0,0 l/m 0,00 h 0,00 h 47 W/m 10,8 km/h (2 Bft) 96,13 %
26.04.2021 20:00 12,2 C 11,4 C 8,8 C 48 % 1015,0 hPa 0,0 l/m 0,00 h 0,00 h 18 W/m 9,9 km/h (2 Bft) 97,15 %
26.04.2021 21:00 10,6 C 9,2 C 6,9 C 56 % 1015,1 hPa 0,0 l/m 0,00 h 0,00 h 0 W/m 3,6 km/h (1 Bft) 99,86 %
26.04.2021 22:00 9,3 C 7,9 C 5,7 C 60 % 1015,0 hPa 0,0 l/m 0,00 h 0,00 h 0 W/m 1,4 km/h (1 Bft) 95,52 %
26.04.2021 23:00 8,4 C 7,0 C 4,7 C 64 % 1014,8 hPa 0,0 l/m 0,00 h 0,00 h 0 W/m 1,1 km/h (0 Bft) 96,06 %
27.04.2021 00:00 7,4 C 6,2 C 3,9 C 66 % 1014,4 hPa 0,0 l/m 0,00 h 0,00 h 0 W/m 1,8 km/h (1 Bft) 99,02 %
27.04.2021 01:00 6,8 C 5,8 C 3,6 C 67 % 1013,8 hPa 0,0 l/m 0,00 h 0,00 h 0 W/m 4,3 km/h (1 Bft) 95,11 %
27.04.2021 02:00 6,0 C 4,8 C 2,7 C 71 % 1013,3 hPa 0,0 l/m 0,00 h 0,00 h 0 W/m 3,5 km/h (1 Bft) 95,40 %
27.04.2021 03:00 5,0 C 4,1 C 2,0 C 74 % 1013,0 hPa 0,0 l/m 0,00 h 0,00 h 0 W/m 3,0 km/h (1 Bft) 94,66 %
27.04.2021 04:00 4,3 C 3,2 C 1,2 C 76 % 1012,7 hPa 0,0 l/m 0,00 h 0,00 h 0 W/m 3,5 km/h (1 Bft) 98,16 %
27.04.2021 05:00 3,6 C 2,6 C 0,6 C 78 % 1012,5 hPa 0,0 l/m 0,00 h 0,00 h 0 W/m 1,9 km/h (1 Bft) 98,43 %
27.04.2021 06:00 3,1 C 2,0 C 0,1 C 80 % 1012,5 hPa 0,0 l/m 0,00 h 0,00 h 12 W/m 1,0 km/h (0 Bft) 96,74 %
27.04.2021 07:00 3,3 C 3,4 C 1,1 C 83 % 1012,6 hPa 0,0 l/m 0,00 h 0,00 h 32 W/m 2,9 km/h (1 Bft) 96,58 %
27.04.2021 08:00 5,9 C 7,3 C 3,6 C 73 % 1012,5 hPa 0,0 l/m 0,30 h 0,00 h 148 W/m 7,4 km/h (2 Bft) 98,72 %
27.04.2021 09:00 10,1 C 14,6 C 10,8 C 52 % 1012,2 hPa 0,0 l/m 0,87 h 0,00 h 413 W/m 15,4 km/h (3 Bft) 95,73 %
27.04.2021 10:00 11,9 C 15,0 C 13,4 C 47 % 1012,0 hPa 0,0 l/m 0,77 h 0,00 h 534 W/m 14,2 km/h (3 Bft) 95,87 %
27.04.2021 11:00 13,1 C 14,4 C 13,2 C 44 % 1011,7 hPa 0,0 l/m 1,00 h 0,00 h 696 W/m 13,9 km/h (3 Bft) 98,00 %
27.04.2021 12:00 14,4 C 17,1 C 17,8 C 42 % 1011,0 hPa 0,0 l/m 0,73 h 0,00 h 640 W/m 11,3 km/h (2 Bft) 96,43 %
27.04.2021 13:00 16,1 C 20,5 C 21,1 C 40 % 1010,3 hPa 0,0 l/m 1,00 h 0,00 h 909 W/m 11,6 km/h (2 Bft) 98,93 %
27.04.2021 14:00 17,2 C 22,4 C 14,4 C 38 % 1009,8 hPa 0,0 l/m 1,00 h 0,00 h 824 W/m 10,6 km/h (2 Bft) 99,57 %
27.04.2021 15:00 18,0 C 23,0 C 14,6 C 36 % 1009,0 hPa 0,0 l/m 1,00 h 0,00 h 795 W/m 11,6 km/h (2 Bft) 96,01 %
27.04.2021 16:00 18,3 C 26,3 C 15,7 C 36 % 1008,2 hPa 0,0 l/m 1,00 h 0,00 h 669 W/m 10,4 km/h (2 Bft) 97,58 %
27.04.2021 17:00 18,6 C 26,0 C 16,3 C 36 % 1007,8 hPa 0,0 l/m 1,00 h 0,00 h 519 W/m 10,0 km/h (2 Bft) 99,07 %
27.04.2021 18:00 18,0 C 23,3 C 14,9 C 37 % 1007,5 hPa 0,0 l/m 1,00 h 0,00 h 321 W/m 9,1 km/h (2 Bft) 96,31 %
27.04.2021 19:00 15,1 C 14,4 C 11,5 C 45 % 1007,2 hPa 0,0 l/m 0,03 h 0,00 h 33 W/m 6,3 km/h (2 Bft) 98,56 %
27.04.2021 20:00 13,6 C 12,5 C 9,9 C 48 % 1007,2 hPa 0,0 l/m 0,00 h 0,00 h 12 W/m 7,6 km/h (2 Bft) 95,84 %
27.04.2021 21:00 12,0 C 10,5 C 8,1 C 53 % 1007,3 hPa 0,0 l/m 0,00 h 0,00 h 0 W/m 4,1 km/h (1 Bft) 97,30 %
27.04.2021 22:00 10,5 C 9,2 C 6,9 C 56 % 1007,3 hPa 0,0 l/m 0,00 h 0,00 h 0 W/m 3,2 km/h (1 Bft) 96,51 %
27.04.2021 23:00 9,6 C 8,5 C 6,2 C 58 % 1007,2 hPa 0,0 l/m 0,00 h 0,00 h 0 W/m 3,5 km/h (1 Bft) 97,79 %
28.04.2021 00:00 8,9 C 7,6 C 5,3 C 60 % 1007,1 hPa 0,0 l/m 0,00 h 0,00 h 0 W/m 2,1 km/h (1 Bft) 95,12 %
28.04.2021 01:00 8,0 C 6,8 C 4,5 C 63 % 1006,9 hPa 0,0 l/m 0,00 h 0,00 h 0 W/m 3,0 km/h (1 Bft) 98,22 %
28.04.2021 02:00 7,1 C 6,0 C 3,8 C 68 % 1006,5 hPa 0,0 l/m 0,00 h 0,00 h 0 W/m 2,7 km/h (1 Bft) 98,02 %
28.04.2021 03:00 6,3 C 5,3 C 3,1 C 70 % 1006,1 hPa 0,0 l/m 0,00 h 0,00 h 0 W/m 3,5 km/h (1 Bft) 99,05 %
28.04.2021 04:00 5,6 C 4,7 C 2,6 C 72 % 1005,9 hPa 0,0 l/m 0,00 h 0,00 h 0 W/m 3,6 km/h (1 Bft) 95,01 %
28.04.2021 05:00 5,0 C 4,0 C 2,1 C 76 % 1005,7 hPa 0,0 l/m 0,00 h 0,00 h 0 W/m 4,5 km/h (1 Bft) 87,97 %
28.04.2021 06:00 4,4 C 3,7 C 1,7 C 79 % 1005,6 hPa 0,0 l/m 0,00 h 0,00 h 13 W/m 3,5 km/h (1 Bft) 96,29 %
28.04.2021 07:00 4,7 C 4,6 C 2,2 C 81 % 1005,6 hPa 0,0 l/m 0,00 h 0,00 h 33 W/m 3,8 km/h (1 Bft) 99,22 %
28.04.2021 08:00 6,5 C 8,0 C 4,7 C 82 % 1005,4 hPa 0,0 l/m 0,33 h 0,00 h 144 W/m 3,8 km/h (1 Bft) 94,10 %
28.04.2021 09:00 10,7 C 15,5 C 10,9 C 70 % 1005,3 hPa 0,0 l/m 0,70 h 0,00 h 311 W/m 6,4 km/h (2 Bft) 98,58 %
28.04.2021 10:00 14,9 C 19,3 C 16,9 C 54 % 1005,0 hPa 0,0 l/m 0,77 h 0,00 h 552 W/m 9,1 km/h (2 Bft) 96,58 %
28.04.2021 11:00 16,8 C 19,9 C 16,5 C 49 % 1004,6 hPa 0,0 l/m 1,00 h 0,00 h 763 W/m 8,9 km/h (2 Bft) 98,86 %
28.04.2021 12:00 19,3 C 23,1 C 26,1 C 42 % 1004,0 hPa 0,0 l/m 1,00 h 0,00 h 850 W/m 9,9 km/h (2 Bft) 99,63 %
28.04.2021 13:00 20,7 C 24,0 C 26,1 C 34 % 1003,4 hPa 0,0 l/m 1,00 h 0,00 h 883 W/m 12,9 km/h (3 Bft) 95,80 %
28.04.2021 14:00 21,8 C 26,1 C 19,0 C 34 % 1002,9 hPa 0,0 l/m 1,00 h 0,00 h 856 W/m 11,6 km/h (2 Bft) 97,58 %
28.04.2021 15:00 22,1 C 25,9 C 19,0 C 33 % 1002,3 hPa 0,0 l/m 1,00 h 0,00 h 604 W/m 10,6 km/h (2 Bft) 98,65 %
28.04.2021 16:00 22,8 C 29,1 C 19,7 C 33 % 1001,8 hPa 0,0 l/m 1,00 h 0,00 h 646 W/m 9,7 km/h (2 Bft) 97,14 %
28.04.2021 17:00 21,9 C 23,9 C 19,0 C 34 % 1001,3 hPa 0,0 l/m 0,70 h 0,00 h 291 W/m 7,0 km/h (2 Bft) 97,93 %
28.04.2021 18:00 20,8 C 21,3 C 17,4 C 36 % 1000,9 hPa 0,0 l/m 0,30 h 0,00 h 164 W/m 5,9 km/h (2 Bft) 96,83 %
28.04.2021 19:00 19,1 C 18,1 C 13,7 C 42 % 1000,5 hPa 0,0 l/m 0,00 h 0,00 h 50 W/m 10,5 km/h (2 Bft) 98,50 %
28.04.2021 20:00 17,4 C 16,5 C 13,6 C 46 % 1000,4 hPa 0,0 l/m 0,00 h 0,00 h 12 W/m 8,5 km/h (2 Bft) 96,94 %
28.04.2021 21:00 16,7 C 15,7 C 12,8 C 48 % 1000,7 hPa 0,0 l/m 0,00 h 0,00 h 0 W/m 3,6 km/h (1 Bft) 97,29 %
28.04.2021 22:00 16,2 C 15,5 C 12,4 C 49 % 1000,7 hPa 0,0 l/m 0,00 h 0,00 h 0 W/m 9,0 km/h (2 Bft) 99,64 %
28.04.2021 23:00 15,4 C 14,2 C 11,4 C 50 % 1000,6 hPa 0,0 l/m 0,00 h 0,00 h 0 W/m 4,8 km/h (1 Bft) 96,38 %
29.04.2021 00:00 14,1 C 12,4 C 9,6 C 55 % 1000,4 hPa 0,0 l/m 0,00 h 0,00 h 0 W/m 2,1 km/h (1 Bft) 96,08 %
29.04.2021 01:00 12,4 C 11,0 C 8,5 C 61 % 1000,4 hPa 0,0 l/m 0,00 h 0,00 h 0 W/m 2,6 km/h (1 Bft) 96,50 %
29.04.2021 02:00 11,0 C 9,7 C 7,4 C 64 % 1000,3 hPa 0,0 l/m 0,00 h 0,00 h 0 W/m 1,6 km/h (1 Bft) 99,72 %
29.04.2021 03:00 10,4 C 9,6 C 7,4 C 69 % 1000,4 hPa 0,0 l/m 0,00 h 0,00 h 0 W/m 6,5 km/h (2 Bft) 96,02 %
29.04.2021 04:00 11,1 C 10,5 C 8,2 C 75 % 1000,6 hPa 0,0 l/m 0,00 h 0,00 h 0 W/m 18,1 km/h (3 Bft) 97,48 %
29.04.2021 05:00 11,3 C 10,5 C 8,3 C 76 % 1000,7 hPa 0,0 l/m 0,00 h 0,00 h 0 W/m 19,4 km/h (3 Bft) 95,95 %
29.04.2021 06:00 10,5 C 9,8 C 7,5 C 71 % 1001,2 hPa 0,0 l/m 0,00 h 0,00 h 8 W/m 10,9 km/h (2 Bft) 96,46 %
29.04.2021 07:00 10,2 C 9,7 C 7,5 C 77 % 1001,8 hPa 0,0 l/m 0,00 h 0,00 h 55 W/m 14,4 km/h (3 Bft) 97,45 %
29.04.2021 08:00 10,3 C 10,8 C 7,7 C 73 % 1002,1 hPa 0,0 l/m 0,37 h 0,00 h 172 W/m 17,4 km/h (3 Bft) 98,65 %
29.04.2021 09:00 11,3 C 13,6 C 11,1 C 75 % 1002,5 hPa 0,0 l/m 0,77 h 0,00 h 359 W/m 27,1 km/h (4 Bft) 94,16 %
29.04.2021 10:00 11,9 C 13,3 C 11,8 C 74 % 1002,9 hPa 0,0 l/m 0,65 h 0,00 h 365 W/m 32,2 km/h (5 Bft) 98,47 %
29.04.2021 11:00 13,2 C 14,6 C 13,1 C 67 % 1003,4 hPa 0,0 l/m 0,82 h 0,00 h 584 W/m 25,0 km/h (4 Bft) 99,83 %
29.04.2021 12:00 13,5 C 14,5 C 14,0 C 64 % 1003,7 hPa 0,0 l/m 0,40 h 0,00 h 451 W/m 22,3 km/h (4 Bft) 95,89 %
29.04.2021 13:00 12,8 C 13,4 C 12,1 C 65 % 1004,2 hPa 0,0 l/m 0,17 h 0,00 h 296 W/m 24,7 km/h (4 Bft) 97,30 %
29.04.2021 14:00 10,6 C 10,6 C 8,6 C 74 % 1005,5 hPa 0,0 l/m 0,20 h 0,00 h 205 W/m 22,8 km/h (4 Bft) 97,50 %
29.04.2021 15:00 8,6 C 8,2 C 6,4 C 80 % 1006,5 hPa 0,0 l/m 0,00 h 0,00 h 72 W/m 21,8 km/h (4 Bft) 97,37 %
29.04.2021 16:00 8,5 C 8,2 C 6,2 C 80 % 1007,2 hPa 0,0 l/m 0,00 h 0,00 h 99 W/m 22,3 km/h (4 Bft) 96,55 %
29.04.2021 17:00 8,8 C 8,5 C 6,4 C 78 % 1008,1 hPa 0,0 l/m 0,07 h 0,00 h 83 W/m 18,8 km/h (3 Bft) 97,09 %
29.04.2021 18:00 8,9 C 8,3 C 6,2 C 76 % 1008,8 hPa 0,0 l/m 0,00 h 0,00 h 40 W/m 14,1 km/h (3 Bft) 98,21 %
29.04.2021 19:00 9,0 C 8,3 C 6,2 C 72 % 1009,2 hPa 0,0 l/m 0,00 h 0,00 h 19 W/m 13,4 km/h (3 Bft) 96,22 %
29.04.2021 20:00 8,9 C 8,3 C 6,1 C 72 % 1009,7 hPa 0,0 l/m 0,00 h 0,00 h 9 W/m 11,6 km/h (2 Bft) 96,15 %
29.04.2021 21:00 8,9 C 8,3 C 6,1 C 71 % 1010,2 hPa 0,0 l/m 0,00 h 0,00 h 0 W/m 13,4 km/h (3 Bft) 96,80 %
29.04.2021 22:00 8,1 C 7,3 C 5,0 C 75 % 1010,8 hPa 0,0 l/m 0,00 h 0,00 h 0 W/m 14,9 km/h (3 Bft) 97,51 %
29.04.2021 23:00 7,4 C 6,8 C 4,5 C 79 % 1011,2 hPa 0,0 l/m 0,00 h 0,00 h 0 W/m 13,1 km/h (3 Bft) 97,30 %
30.04.2021 00:00 6,9 C 6,4 C 4,3 C 81 % 1011,6 hPa 0,0 l/m 0,00 h 0,00 h 0 W/m 11,8 km/h (2 Bft) 97,08 %
30.04.2021 01:00 6,2 C 5,6 C 3,7 C 84 % 1011,8 hPa 0,0 l/m 0,00 h 0,00 h 0 W/m 10,9 km/h (2 Bft) 95,80 %
30.04.2021 02:00 6,4 C 5,9 C 3,9 C 84 % 1011,8 hPa 0,0 l/m 0,00 h 0,00 h 0 W/m 8,8 km/h (2 Bft) 97,86 %
30.04.2021 03:00 6,4 C 6,1 C 3,9 C 85 % 1012,1 hPa 0,0 l/m 0,00 h 0,00 h 0 W/m 7,8 km/h (2 Bft) 96,44 %
30.04.2021 04:00 6,1 C 5,4 C 3,3 C 88 % 1012,3 hPa 0,2 l/m 0,00 h 0,50 h 0 W/m 9,1 km/h (2 Bft) 99,13 %
30.04.2021 05:00 5,5 C 5,0 C 2,8 C 93 % 1012,3 hPa 0,0 l/m 0,00 h 0,10 h 0 W/m 6,3 km/h (2 Bft) 99,57 %
30.04.2021 06:00 5,4 C 5,0 C 2,9 C 94 % 1012,5 hPa 0,4 l/m 0,00 h 0,13 h 5 W/m 3,8 km/h (1 Bft) 94,36 %
30.04.2021 07:00 5,5 C 5,1 C 3,4 C 95 % 1012,8 hPa 0,0 l/m 0,00 h 0,00 h 11 W/m 2,5 km/h (1 Bft) 96,80 %
30.04.2021 08:00 5,4 C 5,0 C 3,4 C 95 % 1013,2 hPa 0,0 l/m 0,00 h 0,00 h 28 W/m 3,2 km/h (1 Bft) 97,72 %
30.04.2021 09:00 5,6 C 5,7 C 4,0 C 95 % 1013,4 hPa 0,0 l/m 0,00 h 0,00 h 72 W/m 4,3 km/h (1 Bft) 97,89 %
30.04.2021 10:00 6,1 C 6,1 C 4,5 C 95 % 1013,6 hPa 0,0 l/m 0,00 h 0,00 h 80 W/m 5,4 km/h (1 Bft) 98,15 %
30.04.2021 11:00 6,6 C 6,9 C 5,2 C 95 % 1014,0 hPa 0,0 l/m 0,00 h 0,00 h 95 W/m 3,5 km/h (1 Bft) 96,68 %
30.04.2021 12:00 8,2 C 9,4 C 7,4 C 92 % 1013,9 hPa 0,0 l/m 0,00 h 0,00 h 291 W/m 7,2 km/h (2 Bft) 94,99 %
30.04.2021 13:00 10,2 C 13,6 C 12,2 C 85 % 1013,5 hPa 0,0 l/m 0,70 h 0,00 h 677 W/m 9,6 km/h (2 Bft) 98,06 %
30.04.2021 14:00 11,3 C 12,1 C 9,9 C 78 % 1013,5 hPa 0,0 l/m 0,07 h 0,00 h 248 W/m 6,6 km/h (2 Bft) 98,64 %
30.04.2021 15:00 11,2 C 12,1 C 9,5 C 76 % 1013,2 hPa 0,0 l/m 0,20 h 0,00 h 233 W/m 5,0 km/h (1 Bft) 95,23 %
30.04.2021 16:00 12,1 C 14,2 C 10,3 C 72 % 1012,9 hPa 0,0 l/m 0,37 h 0,00 h 335 W/m 6,9 km/h (2 Bft) 98,65 %
30.04.2021 17:00 12,8 C 14,5 C 10,2 C 69 % 1012,7 hPa 0,0 l/m 0,37 h 0,00 h 261 W/m 5,9 km/h (2 Bft) 98,24 %
30.04.2021 18:00 13,3 C 17,4 C 10,3 C 66 % 1012,5 hPa 0,0 l/m 0,90 h 0,00 h 315 W/m 4,2 km/h (1 Bft) 95,47 %
30.04.2021 19:00 12,5 C 12,1 C 9,1 C 67 % 1012,4 hPa 0,0 l/m 0,10 h 0,00 h 78 W/m 3,8 km/h (1 Bft) 99,22 %
30.04.2021 20:00 11,3 C 9,8 C 7,2 C 72 % 1012,7 hPa 0,0 l/m 0,00 h 0,00 h 18 W/m 2,0 km/h (1 Bft) 96,14 %
30.04.2021 21:00 9,7 C 8,5 C 6,2 C 80 % 1013,4 hPa 0,0 l/m 0,00 h 0,00 h 0 W/m 4,9 km/h (1 Bft) 97,81 %
30.04.2021 22:00 8,9 C 7,9 C 5,6 C 85 % 1013,7 hPa 0,0 l/m 0,00 h 0,00 h 0 W/m 1,9 km/h (1 Bft) 96,44 %
30.04.2021 23:00 8,6 C 7,8 C 5,8 C 87 % 1013,9 hPa 0,0 l/m 0,00 h 0,00 h 0 W/m 1,7 km/h (1 Bft) 96,30 %
01.05.2021 00:00 8,5 C 7,8 C 5,6 C 88 % 1014,3 hPa 0,0 l/m 0,00 h 0,00 h 0 W/m 0,7 km/h (0 Bft) 98,18 %
01.05.2021 01:00 8,1 C 6,9 C 5,2 C 89 % 1014,5 hPa 0,0 l/m 0,00 h 0,00 h 0 W/m 1,0 km/h (0 Bft) 98,43 %
01.05.2021 02:00 7,2 C 6,1 C 4,5 C 91 % 1014,4 hPa 0,0 l/m 0,00 h 0,00 h 0 W/m 1,3 km/h (1 Bft) 99,21 %
01.05.2021 03:00 6,4 C 5,4 C 3,8 C 93 % 1014,3 hPa 0,0 l/m 0,00 h 0,00 h 0 W/m 0,9 km/h (0 Bft) 96,14 %
01.05.2021 04:00 5,5 C 4,1 C 2,9 C 93 % 1014,3 hPa 0,0 l/m 0,00 h 0,00 h 0 W/m 0,0 km/h (0 Bft) 98,23 %
01.05.2021 05:00 4,6 C 3,3 C 2,3 C 94 % 1014,0 hPa 0,0 l/m 0,00 h 0,00 h 0 W/m 0,0 km/h (0 Bft) 95,18 %
01.05.2021 06:00 4,0 C 2,9 C 1,9 C 95 % 1014,2 hPa 0,0 l/m 0,00 h 0,00 h 16 W/m 0,0 km/h (0 Bft) 96,90 %
01.05.2021 07:00 4,4 C 4,2 C 3,1 C 96 % 1014,6 hPa 0,0 l/m 0,00 h 0,00 h 44 W/m 2,0 km/h (1 Bft) 94,67 %
01.05.2021 08:00 5,7 C 6,8 C 4,6 C 96 % 1014,7 hPa 0,0 l/m 0,50 h 0,00 h 190 W/m 5,9 km/h (2 Bft) 99,07 %
01.05.2021 09:00 8,0 C 11,1 C 9,0 C 89 % 1014,6 hPa 0,0 l/m 0,67 h 0,00 h 329 W/m 9,3 km/h (2 Bft) 98,58 %
01.05.2021 10:00 9,8 C 13,2 C 13,1 C 75 % 1014,5 hPa 0,0 l/m 0,97 h 0,00 h 557 W/m 9,1 km/h (2 Bft) 95,30 %
01.05.2021 11:00 11,5 C 13,7 C 12,9 C 65 % 1014,5 hPa 0,0 l/m 1,00 h 0,00 h 764 W/m 12,9 km/h (3 Bft) 95,68 %
01.05.2021 12:00 13,0 C 15,1 C 18,0 C 56 % 1014,4 hPa 0,0 l/m 0,70 h 0,00 h 659 W/m 13,7 km/h (3 Bft) 95,95 %
01.05.2021 13:00 13,3 C 15,7 C 16,5 C 54 % 1014,2 hPa 0,0 l/m 0,73 h 0,00 h 775 W/m 13,2 km/h (3 Bft) 96,94 %
01.05.2021 14:00 15,1 C 18,0 C 12,7 C 49 % 1013,9 hPa 0,0 l/m 0,97 h 0,00 h 823 W/m 14,7 km/h (3 Bft) 97,44 %
01.05.2021 15:00 14,6 C 16,0 C 11,8 C 48 % 1013,2 hPa 0,0 l/m 0,40 h 0,00 h 477 W/m 12,7 km/h (3 Bft) 97,96 %
01.05.2021 16:00 14,5 C 16,4 C 11,9 C 48 % 1013,0 hPa 0,0 l/m 0,43 h 0,00 h 387 W/m 13,9 km/h (3 Bft) 99,57 %
01.05.2021 17:00 13,7 C 14,7 C 11,0 C 51 % 1012,9 hPa 0,0 l/m 0,57 h 0,00 h 269 W/m 13,9 km/h (3 Bft) 94,31 %
01.05.2021 18:00 13,7 C 15,8 C 10,9 C 51 % 1012,8 hPa 0,0 l/m 0,97 h 0,00 h 271 W/m 14,0 km/h (3 Bft) 98,19 %
01.05.2021 19:00 12,7 C 12,2 C 9,4 C 56 % 1013,0 hPa 0,0 l/m 0,30 h 0,00 h 92 W/m 12,0 km/h (2 Bft) 99,57 %
01.05.2021 20:00 11,9 C 11,2 C 8,7 C 59 % 1013,3 hPa 0,0 l/m 0,77 h 0,00 h 42 W/m 11,4 km/h (2 Bft) 94,52 %
01.05.2021 21:00 10,7 C 9,5 C 7,2 C 65 % 1013,9 hPa 0,0 l/m 0,00 h 0,00 h 4 W/m 10,9 km/h (2 Bft) 97,93 %
01.05.2021 22:00 9,4 C 8,4 C 6,1 C 68 % 1014,3 hPa 0,0 l/m 0,00 h 0,00 h 0 W/m 10,1 km/h (2 Bft) 98,57 %
01.05.2021 23:00 8,3 C 7,3 C 4,9 C 72 % 1014,4 hPa 0,0 l/m 0,00 h 0,00 h 0 W/m 8,6 km/h (2 Bft) 97,72 %
02.05.2021 00:00 7,2 C 6,3 C 4,0 C 77 % 1014,7 hPa 0,0 l/m 0,00 h 0,00 h 0 W/m 6,4 km/h (2 Bft) 97,46 %
02.05.2021 01:00 6,2 C 4,8 C 2,9 C 82 % 1014,9 hPa 0,0 l/m 0,00 h 0,00 h 0 W/m 1,2 km/h (1 Bft) 97,15 %
02.05.2021 02:00 5,1 C 3,9 C 2,0 C 86 % 1015,1 hPa 0,0 l/m 0,00 h 0,00 h 0 W/m 1,3 km/h (1 Bft) 95,59 %
02.05.2021 03:00 4,4 C 3,6 C 1,7 C 89 % 1015,2 hPa 0,0 l/m 0,00 h 0,00 h 0 W/m 2,2 km/h (1 Bft) 95,80 %
02.05.2021 04:00 4,1 C 3,3 C 1,7 C 92 % 1015,5 hPa 0,0 l/m 0,00 h 0,00 h 0 W/m 3,3 km/h (1 Bft) 96,04 %
02.05.2021 05:00 4,6 C 4,2 C 2,4 C 93 % 1015,9 hPa 0,0 l/m 0,00 h 0,00 h 0 W/m 3,3 km/h (1 Bft) 98,16 %
02.05.2021 06:00 5,1 C 4,8 C 3,1 C 93 % 1016,5 hPa 0,0 l/m 0,00 h 0,00 h 7 W/m 6,8 km/h (2 Bft) 99,78 %
02.05.2021 07:00 5,6 C 5,4 C 3,7 C 90 % 1017,2 hPa 0,0 l/m 0,00 h 0,00 h 52 W/m 10,1 km/h (2 Bft) 96,09 %
02.05.2021 08:00 6,4 C 7,3 C 4,8 C 87 % 1017,7 hPa 0,0 l/m 0,37 h 0,00 h 200 W/m 16,4 km/h (3 Bft) 94,68 %
02.05.2021 09:00 8,4 C 11,1 C 8,7 C 78 % 1018,0 hPa 0,0 l/m 0,60 h 0,00 h 384 W/m 19,8 km/h (4 Bft) 97,91 %
02.05.2021 10:00 9,3 C 10,9 C 9,7 C 70 % 1018,3 hPa 0,0 l/m 0,57 h 0,00 h 411 W/m 20,5 km/h (4 Bft) 97,52 %
02.05.2021 11:00 10,0 C 11,3 C 9,2 C 64 % 1018,4 hPa 0,0 l/m 0,47 h 0,00 h 446 W/m 21,7 km/h (4 Bft) 98,29 %
02.05.2021 12:00 10,4 C 11,0 C 9,1 C 60 % 1018,6 hPa 0,0 l/m 0,17 h 0,00 h 325 W/m 22,6 km/h (4 Bft) 94,88 %
02.05.2021 13:00 11,1 C 11,9 C 10,2 C 57 % 1018,8 hPa 0,0 l/m 0,27 h 0,00 h 329 W/m 19,8 km/h (4 Bft) 97,72 %
02.05.2021 14:00 11,2 C 11,6 C 9,0 C 56 % 1018,9 hPa 0,0 l/m 0,17 h 0,00 h 292 W/m 17,4 km/h (3 Bft) 99,29 %
02.05.2021 15:00 11,0 C 11,7 C 8,8 C 61 % 1019,1 hPa 0,0 l/m 0,13 h 0,00 h 307 W/m 19,9 km/h (4 Bft) 96,51 %
02.05.2021 16:00 10,9 C 11,3 C 8,6 C 62 % 1019,3 hPa 0,0 l/m 0,30 h 0,00 h 254 W/m 19,4 km/h (3 Bft) 96,08 %
02.05.2021 17:00 11,5 C 13,3 C 9,1 C 57 % 1019,2 hPa 0,0 l/m 0,70 h 0,00 h 338 W/m 18,1 km/h (3 Bft) 99,14 %
02.05.2021 18:00 11,1 C 12,0 C 8,3 C 59 % 1019,3 hPa 0,0 l/m 0,37 h 0,00 h 180 W/m 15,9 km/h (3 Bft) 94,55 %
02.05.2021 19:00 10,5 C 10,1 C 7,5 C 60 % 1019,3 hPa 0,0 l/m 0,13 h 0,00 h 67 W/m 16,1 km/h (3 Bft) 96,94 %
02.05.2021 20:00 9,8 C 9,0 C 6,6 C 62 % 1019,7 hPa 0,0 l/m 0,20 h 0,00 h 28 W/m 16,2 km/h (3 Bft) 98,58 %
02.05.2021 21:00 8,2 C 6,8 C 4,5 C 67 % 1020,4 hPa 0,0 l/m 0,00 h 0,00 h 2 W/m 2,6 km/h (1 Bft) 97,50 %
02.05.2021 22:00 6,7 C 5,0 C 2,9 C 73 % 1020,8 hPa 0,0 l/m 0,00 h 0,00 h 0 W/m 0,6 km/h (0 Bft) 98,51 %
02.05.2021 23:00 5,3 C 3,9 C 1,9 C 77 % 1021,2 hPa 0,0 l/m 0,00 h 0,00 h 0 W/m 0,1 km/h (0 Bft) 96,13 %
Min-Datum _ 26.04.21 26.04.21 26.04.21 28.04.21 29.04.21 - - - - 26.04.21 02.05.21
_ Min-Zeit 06:36 03:18 03:22 13:44 02:20 - - - - 00:00 23:24
Minimum _ 1,7 C 1,1 C -0,5 C 32 % 1000,2 hPa - - - - 0,0 km/h (0 Bft) 45,95 %
Max-Datum _ 28.04.21 28.04.21 28.04.21 01.05.21 26.04.21 30.04.21 29.04.21 30.04.21 30.04.21 29.04.21 26.04.21
_ Max-Zeit 16:50 16:30 13:38 07:52 00:00 06:02 11:00 04:26 14:02 10:38 00:00
Maximum _ 23,1 C 30,6 C 30,0 C 97 % 1024,4 hPa 0,4 l/m 0,08 h 0,03 h 1100 W/m 67,6 km/h
S-SO (8 Bft)
100,00 %
Durchschnitt _ 10,1 C 10,8 C 8,1 C 68 % 1011,9 hPa #0,6 l/m #48:04 h #44 min. 322 W/m 8,9 km/h (2 Bft) 97,15 %
© 2021 W. Hausmann